Time;durP1;ratioP1;P1;durP2;ratioP2;P2;SDS_P1;SDS_P2;PMS_P1;PMS_P2;Temp;Humidity;BMP_temperature;BMP_pressure;BME280_temperature;BME280_humidity;BME280_pressure;Samples;Min_cycle;Max_cycle;Signal;HPM_P1;HPM_P2
2022/01/31 00:02:26;;;;;;;16.38;6.25;;;;;;;8.72;53.62;101454.94;4912228;29;20123;-67
2022/01/31 00:04:53;;;;;;;17.95;6.03;;;;;;;8.73;53.62;101435.25;4910528;29;20048;-67
2022/01/31 00:07:19;;;;;;;16.88;7.45;;;;;;;8.77;53.61;101426.09;4912180;29;20041;-66
2022/01/31 00:09:46;;;;;;;14.35;5.85;;;;;;;8.82;53.73;101409.78;4911592;29;20068;-66
2022/01/31 00:12:17;;;;;;;18.35;6.47;;;;;;;8.86;53.71;101388.09;4912164;29;20044;-67
2022/01/31 00:14:48;;;;;;;15.82;6.10;;;;;;;8.89;53.83;101387.06;4912021;29;20064;-67
2022/01/31 00:17:16;;;;;;;13.02;5.70;;;;;;;8.89;53.80;101362.97;4910777;29;20106;-68
2022/01/31 00:19:43;;;;;;;15.52;6.47;;;;;;;8.89;53.74;101366.50;4911718;29;20104;-67
2022/01/31 00:22:13;;;;;;;15.65;5.90;;;;;;;8.88;53.76;101359.41;4911729;29;20132;-67
2022/01/31 00:24:40;;;;;;;20.17;6.45;;;;;;;8.88;53.79;101356.75;4912919;29;20462;-66
2022/01/31 00:27:08;;;;;;;15.07;5.90;;;;;;;8.88;53.87;101354.06;4915348;29;20414;-67
2022/01/31 00:29:35;;;;;;;14.55;5.68;;;;;;;8.92;53.43;101333.34;4915032;29;20123;-67
2022/01/31 00:32:03;;;;;;;15.00;6.28;;;;;;;8.94;54.13;101323.41;4913920;29;20481;-67
2022/01/31 00:34:31;;;;;;;15.82;6.30;;;;;;;8.95;53.88;101321.59;4913894;29;20045;-67
2022/01/31 00:36:58;;;;;;;14.23;6.22;;;;;;;8.96;53.85;101296.53;4915060;29;20410;-67
2022/01/31 00:39:25;;;;;;;15.07;7.20;;;;;;;8.99;53.82;101285.66;4914597;29;20094;-67
2022/01/31 00:41:51;;;;;;;13.20;6.50;;;;;;;9.01;53.95;101281.06;4914971;29;20052;-67
2022/01/31 00:44:28;;;;;;;17.38;5.85;;;;;;;9.02;54.06;101270.28;4915173;29;20044;-67
2022/01/31 00:47:05;;;;;;;18.48;6.53;;;;;;;9.02;54.15;101242.63;4913442;29;20076;-66
2022/01/31 00:51:59;;;;;;;15.70;5.72;;;;;;;9.04;54.13;101221.97;4913483;29;20117;-66
2022/01/31 00:54:31;;;;;;;20.02;6.43;;;;;;;9.06;54.12;101209.34;4914982;29;20032;-67
2022/01/31 00:56:58;;;;;;;15.60;6.38;;;;;;;9.05;54.29;101204.94;4928559;29;20068;-67
2022/01/31 00:59:24;;;;;;;16.35;6.38;;;;;;;9.06;54.31;101194.13;4914628;29;20047;-67
2022/01/31 01:01:51;;;;;;;13.93;6.50;;;;;;;9.09;54.40;101187.72;4914687;29;20068;-67
2022/01/31 01:04:18;;;;;;;16.98;6.70;;;;;;;9.10;54.37;101173.38;4913434;29;20094;-67
2022/01/31 01:06:45;;;;;;;15.60;6.95;;;;;;;9.10;54.53;101170.69;4913115;29;20102;-67
2022/01/31 01:09:12;;;;;;;17.92;6.88;;;;;;;9.10;54.70;101150.13;4928793;29;20402;-67
2022/01/31 01:11:39;;;;;;;21.50;6.15;;;;;;;9.11;54.83;101142.94;4913332;29;20053;-67
2022/01/31 01:14:07;;;;;;;14.43;5.80;;;;;;;9.09;54.99;101135.00;4913102;29;20127;-66
2022/01/31 01:16:34;;;;;;;14.75;6.28;;;;;;;9.08;54.91;101132.41;4913176;29;20596;-66
2022/01/31 01:19:02;;;;;;;11.98;6.63;;;;;;;9.05;55.12;101122.75;4928661;29;20048;-66
2022/01/31 01:21:30;;;;;;;25.13;6.93;;;;;;;9.04;55.30;101110.31;4928975;29;20086;-66
2022/01/31 01:24:01;;;;;;;16.05;6.05;;;;;;;9.04;55.49;101104.09;4914584;29;20040;-66
2022/01/31 01:26:27;;;;;;;17.98;7.57;;;;;;;9.05;55.49;101097.78;4913002;29;20094;-67
2022/01/31 01:28:58;;;;;;;9.95;5.57;;;;;;;9.05;55.48;101097.78;4914020;29;20060;-67
2022/01/31 01:31:26;;;;;;;20.33;7.65;;;;;;;9.04;55.66;101085.31;4912864;29;20379;-66
2022/01/31 01:33:55;;;;;;;17.73;7.35;;;;;;;9.03;55.74;101070.22;4914152;28;20079;-66
2022/01/31 01:36:23;;;;;;;17.95;6.60;;;;;;;9.01;55.93;101064.94;4913223;29;20421;-65
2022/01/31 01:38:50;;;;;;;18.63;6.88;;;;;;;8.99;56.10;101045.44;4912347;29;20102;-65
2022/01/31 01:41:17;;;;;;;17.08;7.05;;;;;;;8.98;56.15;101042.84;4914187;29;20044;-65
2022/01/31 01:43:45;;;;;;;19.58;7.03;;;;;;;8.96;56.35;101028.69;4914298;29;20564;-66
2022/01/31 01:46:12;;;;;;;21.40;7.25;;;;;;;8.94;56.41;101012.72;4912727;29;20147;-65
2022/01/31 01:48:39;;;;;;;24.45;6.57;;;;;;;8.92;56.61;101006.59;4912169;28;20048;-65
2022/01/31 01:51:08;;;;;;;13.07;6.22;;;;;;;8.93;56.73;100996.72;4928377;29;20090;-65
2022/01/31 01:53:35;;;;;;;12.60;5.70;;;;;;;8.93;56.71;101002.94;4928579;29;20046;-66
2022/01/31 01:56:01;;;;;;;16.80;6.03;;;;;;;8.92;56.85;100985.16;4913850;29;20347;-65
2022/01/31 01:58:38;;;;;;;17.55;6.38;;;;;;;8.89;56.78;100986.19;4911775;29;20135;-64
2022/01/31 02:01:06;;;;;;;17.88;6.97;;;;;;;8.89;56.95;100982.63;4928423;29;20052;-65
2022/01/31 02:03:44;;;;;;;17.17;6.57;;;;;;;8.88;57.20;100971.06;4914798;29;20045;-65
2022/01/31 02:06:11;;;;;;;15.00;6.53;;;;;;;8.88;57.23;100967.53;4912559;29;20040;-65
2022/01/31 02:08:42;;;;;;;13.48;6.20;;;;;;;8.86;57.31;100954.22;4912247;29;20055;-65
2022/01/31 02:11:13;;;;;;;13.20;5.40;;;;;;;8.86;57.21;100948.00;4912588;29;20053;-65
2022/01/31 02:13:49;;;;;;;10.10;5.47;;;;;;;8.83;57.35;100922.28;4912541;29;20045;-64
2022/01/31 02:16:31;;;;;;;15.38;5.82;;;;;;;8.80;57.55;100922.47;4913485;29;20062;-65
2022/01/31 02:19:07;;;;;;;21.63;6.22;;;;;;;8.80;57.49;100902.88;4927014;29;20131;-65
2022/01/31 02:21:54;;;;;;;13.20;5.70;;;;;;;8.76;57.66;100899.53;4913430;29;20063;-65
2022/01/31 02:24:40;;;;;;;18.88;5.78;;;;;;;8.76;57.81;100886.13;4913900;29;20102;-65
2022/01/31 02:27:39;;;;;;;14.23;5.75;;;;;;;8.79;57.90;100883.25;4903593;29;20406;-65
2022/01/31 02:30:10;;;;;;;12.57;5.82;;;;;;;8.80;58.12;100895.69;4911994;29;20044;-66
2022/01/31 02:32:42;;;;;;;15.70;5.65;;;;;;;8.84;58.14;100873.13;4912150;29;20403;-67
2022/01/31 02:35:11;;;;;;;15.77;6.70;;;;;;;8.87;58.04;100877.41;4911898;29;20053;-66
2022/01/31 02:37:39;;;;;;;14.27;6.03;;;;;;;8.88;58.23;100863.94;4911965;29;20111;-65
2022/01/31 02:40:20;;;;;;;14.75;5.53;;;;;;;8.88;58.27;100861.25;4912203;29;20474;-65
2022/01/31 02:42:50;;;;;;;13.13;5.55;;;;;;;8.89;58.46;100857.63;4913190;29;20067;-65
2022/01/31 02:45:17;;;;;;;14.48;6.72;;;;;;;8.91;58.57;100854.84;4912109;29;20478;-65
2022/01/31 02:47:51;;;;;;;15.77;5.93;;;;;;;8.93;58.58;100854.78;4911555;29;20040;-66
2022/01/31 02:50:19;;;;;;;17.97;6.10;;;;;;;8.95;58.86;100851.03;4928009;29;20058;-65
2022/01/31 02:52:56;;;;;;;16.73;7.30;;;;;;;8.98;59.10;100850.84;4911598;29;20044;-65
2022/01/31 02:55:23;;;;;;;15.15;6.50;;;;;;;9.01;59.00;100834.56;4928023;29;20147;-66
2022/01/31 02:57:50;;;;;;;15.63;6.93;;;;;;;9.05;59.20;100821.84;4911422;29;20533;-65
2022/01/31 03:00:17;;;;;;;13.07;6.80;;;;;;;9.08;59.36;100816.28;4927083;29;20040;-65
2022/01/31 03:03:27;;;;;;;12.98;6.80;;;;;;;9.10;59.69;100811.69;4911809;29;20048;-66
2022/01/31 03:05:54;;;;;;;14.52;6.55;;;;;;;9.13;59.77;100812.34;4911545;29;20056;-65
2022/01/31 03:08:24;;;;;;;12.57;6.28;;;;;;;9.13;59.86;100804.31;4911428;29;20044;-66
2022/01/31 03:10:52;;;;;;;14.82;6.40;;;;;;;9.16;59.93;100806.78;4926983;29;20418;-65
2022/01/31 03:13:33;;;;;;;8.02;5.68;;;;;;;9.20;60.13;100797.56;4911720;29;20044;-65
2022/01/31 03:16:00;;;;;;;11.25;6.10;;;;;;;9.23;60.17;100791.16;4927297;29;20613;-66
2022/01/31 03:18:27;;;;;;;14.88;7.03;;;;;;;9.28;60.20;100797.06;4912339;29;20052;-65
2022/01/31 03:20:54;;;;;;;8.18;5.05;;;;;;;9.30;60.30;100789.78;4911433;29;20102;-65
2022/01/31 03:23:24;;;;;;;10.90;5.88;;;;;;;9.33;60.26;100780.69;4911780;29;20044;-65
2022/01/31 03:25:51;;;;;;;10.30;5.25;;;;;;;9.35;60.35;100782.31;4912318;29;20040;-65
2022/01/31 03:28:18;;;;;;;8.57;5.50;;;;;;;9.38;60.28;100776.72;4911136;29;20549;-65
2022/01/31 03:30:44;;;;;;;12.15;5.60;;;;;;;9.41;60.44;100783.72;4912612;29;20571;-65
2022/01/31 03:33:12;;;;;;;15.32;5.85;;;;;;;9.42;60.59;100780.94;4994091;28;20080;-66
2022/01/31 03:35:39;;;;;;;11.57;5.70;;;;;;;9.45;60.64;100779.84;4911208;29;20055;-65
2022/01/31 03:38:06;;;;;;;13.25;6.18;;;;;;;9.48;60.73;100772.47;4926770;29;20080;-65
2022/01/31 03:40:32;;;;;;;13.30;6.00;;;;;;;9.52;60.71;100763.25;4911221;29;20048;-65
2022/01/31 03:43:06;;;;;;;17.67;6.43;;;;;;;9.57;60.74;100744.16;4910772;29;20106;-67
2022/01/31 03:45:34;;;;;;;10.35;5.35;;;;;;;9.61;60.80;100747.50;4926813;29;20041;-66
2022/01/31 03:48:09;;;;;;;13.63;5.32;;;;;;;9.65;60.95;100740.97;4926786;29;20052;-65
2022/01/31 03:50:37;;;;;;;15.18;4.95;;;;;;;9.68;60.98;100735.44;4927011;29;20099;-66
2022/01/31 03:53:07;;;;;;;14.43;4.75;;;;;;;9.71;60.99;100733.38;4911179;29;20048;-66
2022/01/31 03:55:34;;;;;;;11.75;4.78;;;;;;;9.75;61.25;100748.31;4926743;29;20073;-66
2022/01/31 03:58:01;;;;;;;12.45;3.92;;;;;;;9.78;61.39;100739.19;4911966;29;20051;-65
2022/01/31 04:00:44;;;;;;;14.23;4.57;;;;;;;9.82;61.50;100744.22;4910010;29;20048;-66
2022/01/31 04:03:13;;;;;;;17.20;4.07;;;;;;;9.85;61.14;100749.38;4912546;29;20044;-66
2022/01/31 04:05:40;;;;;;;17.15;4.60;;;;;;;9.89;61.39;100750.03;4911896;29;20530;-66
2022/01/31 04:08:08;;;;;;;16.52;3.78;;;;;;;9.93;61.38;100732.75;4912285;29;20467;-66
2022/01/31 04:10:36;;;;;;;12.80;3.38;;;;;;;9.96;61.30;100729.84;4912033;29;20048;-66
2022/01/31 04:15:34;;;;;;;12.00;3.83;;;;;;;10.04;61.25;100724.81;4912233;29;20059;-66
2022/01/31 04:18:02;;;;;;;12.48;3.55;;;;;;;10.06;61.41;100719.31;4911659;29;20075;-66
2022/01/31 04:20:29;;;;;;;14.85;4.15;;;;;;;10.08;61.34;100728.13;4912056;29;20498;-66
2022/01/31 04:23:03;;;;;;;14.65;3.97;;;;;;;10.09;61.09;100735.22;4911965;29;20044;-67
2022/01/31 04:25:45;;;;;;;14.23;3.75;;;;;;;10.12;61.19;100726.94;4911600;29;20056;-66
2022/01/31 04:28:22;;;;;;;9.48;2.70;;;;;;;10.14;61.19;100716.94;4911945;29;20139;-67
2022/01/31 04:31:12;;;;;;;19.02;4.68;;;;;;;10.16;60.94;100720.38;4912134;29;20052;-66
2022/01/31 04:33:47;;;;;;;9.95;3.58;;;;;;;10.18;60.94;100715.75;4911590;29;20059;-66
2022/01/31 04:36:15;;;;;;;9.43;2.95;;;;;;;10.20;60.87;100719.22;4911969;29;20529;-66
2022/01/31 04:38:47;;;;;;;16.23;3.58;;;;;;;10.22;60.83;100713.75;4911471;28;20052;-66
2022/01/31 04:41:15;;;;;;;9.10;2.65;;;;;;;10.23;60.58;100716.31;4911503;29;20060;-66
2022/01/31 04:43:47;;;;;;;17.27;3.45;;;;;;;10.24;60.52;100709.13;4911765;29;20063;-67
2022/01/31 04:46:14;;;;;;;8.82;2.60;;;;;;;10.27;60.57;100714.28;4911660;29;20056;-66
2022/01/31 04:48:43;;;;;;;9.90;2.80;;;;;;;10.30;60.42;100714.91;4911646;29;20063;-66
2022/01/31 04:51:11;;;;;;;9.88;3.45;;;;;;;10.31;60.43;100715.78;4911505;29;20052;-66
2022/01/31 04:53:39;;;;;;;14.63;3.10;;;;;;;10.33;60.28;100711.16;4911686;29;20502;-66
2022/01/31 04:56:06;;;;;;;9.90;2.55;;;;;;;10.33;59.94;100716.53;4911498;29;20080;-66
2022/01/31 04:58:33;;;;;;;11.98;2.88;;;;;;;10.31;60.19;100719.31;4911315;29;20059;-66
2022/01/31 05:01:00;;;;;;;14.77;3.28;;;;;;;10.31;59.90;100695.16;4911456;29;20051;-66
2022/01/31 05:03:30;;;;;;;7.25;2.33;;;;;;;10.31;59.96;100700.53;4911851;29;20102;-66
2022/01/31 05:05:57;;;;;;;12.98;3.08;;;;;;;10.32;59.98;100694.19;4911214;29;20055;-66
2022/01/31 05:08:27;;;;;;;13.30;2.72;;;;;;;10.33;59.86;100692.38;4911014;29;20067;-66
2022/01/31 05:10:54;;;;;;;13.40;3.13;;;;;;;10.34;59.45;100688.72;4911425;29;20384;-66
2022/01/31 05:13:21;;;;;;;11.82;3.15;;;;;;;10.33;59.54;100681.63;4914640;29;20048;-67
2022/01/31 05:15:48;;;;;;;15.50;2.67;;;;;;;10.33;59.53;100681.63;4914812;29;20048;-66
2022/01/31 05:18:15;;;;;;;11.88;2.50;;;;;;;10.33;59.36;100681.63;4914351;29;20059;-66
2022/01/31 05:20:42;;;;;;;11.68;2.63;;;;;;;10.34;59.14;100675.28;4914532;29;20433;-66
2022/01/31 05:23:10;;;;;;;11.25;2.65;;;;;;;10.34;59.06;100665.41;4914513;29;20099;-66
2022/01/31 05:25:37;;;;;;;13.60;2.55;;;;;;;10.32;59.19;100667.34;4914232;29;20080;-66
2022/01/31 05:28:04;;;;;;;12.43;2.63;;;;;;;10.33;59.08;100668.22;4929035;29;20044;-65
2022/01/31 05:30:30;;;;;;;10.57;2.53;;;;;;;10.33;58.84;100660.16;4914500;29;20059;-66
2022/01/31 05:32:57;;;;;;;11.48;3.00;;;;;;;10.34;58.77;100648.44;4914280;29;20048;-67
2022/01/31 05:35:45;;;;;;;12.52;3.47;;;;;;;10.33;58.85;100650.28;4911583;29;20063;-66
2022/01/31 05:38:12;;;;;;;10.38;2.53;;;;;;;10.34;58.77;100635.03;4913963;29;20048;-66
2022/01/31 05:40:39;;;;;;;14.52;3.10;;;;;;;10.32;58.71;100636.97;4914398;29;20394;-66
2022/01/31 05:43:08;;;;;;;9.32;2.50;;;;;;;10.31;58.73;100635.25;4914556;29;20064;-67
2022/01/31 05:45:35;;;;;;;17.13;2.53;;;;;;;10.29;58.57;100629.13;4914280;29;20062;-66
2022/01/31 05:48:02;;;;;;;10.60;2.80;;;;;;;10.27;58.74;100633.75;4912952;28;20052;-66
2022/01/31 05:50:28;;;;;;;17.35;2.60;;;;;;;10.25;58.45;100624.97;4914192;29;20044;-67
2022/01/31 05:52:55;;;;;;;16.27;2.10;;;;;;;10.24;58.72;100640.22;4913905;29;20051;-67
2022/01/31 05:55:22;;;;;;;15.85;3.17;;;;;;;10.23;58.65;100668.03;4913987;29;20550;-66
2022/01/31 05:57:48;;;;;;;11.93;2.50;;;;;;;10.19;58.61;100688.81;4913161;29;20044;-66
2022/01/31 06:00:20;;;;;;;8.65;1.98;;;;;;;10.11;58.67;100688.50;4914374;29;20058;-66
2022/01/31 06:02:56;;;;;;;7.35;1.80;;;;;;;10.00;58.74;100685.75;4914375;29;20052;-65
2022/01/31 06:05:23;;;;;;;5.70;1.35;;;;;;;9.89;58.61;100682.97;4914351;29;20135;-65
2022/01/31 06:07:50;;;;;;;8.00;1.90;;;;;;;9.79;58.77;100689.94;4913462;29;20054;-66
2022/01/31 06:10:17;;;;;;;6.20;1.70;;;;;;;9.68;58.82;100685.34;4913864;29;20052;-66
2022/01/31 06:12:45;;;;;;;6.72;1.63;;;;;;;9.61;58.97;100681.34;4913767;29;20044;-67
2022/01/31 06:15:16;;;;;;;6.30;1.67;;;;;;;9.55;59.04;100663.00;4913615;29;20079;-65
2022/01/31 06:17:42;;;;;;;8.13;1.90;;;;;;;9.51;59.03;100662.34;4913329;29;20052;-66
2022/01/31 06:20:09;;;;;;;5.65;1.63;;;;;;;9.46;59.13;100658.28;4913841;29;20118;-66
2022/01/31 06:22:48;;;;;;;9.18;1.80;;;;;;;9.41;59.49;100641.66;4913227;29;20135;-65
2022/01/31 06:25:18;;;;;;;8.88;2.15;;;;;;;9.38;59.22;100633.81;4913786;29;20399;-67
2022/01/31 06:27:45;;;;;;;10.27;2.40;;;;;;;9.35;59.32;100631.34;4912026;29;20180;-66
2022/01/31 06:30:13;;;;;;;11.90;2.88;;;;;;;9.35;59.65;100634.03;4911987;29;20052;-66
2022/01/31 06:32:44;;;;;;;11.18;2.95;;;;;;;9.34;59.66;100633.19;4927762;29;20052;-66
2022/01/31 06:35:12;;;;;;;10.73;3.28;;;;;;;9.34;59.75;100622.47;4912244;29;20060;-66
2022/01/31 06:37:39;;;;;;;11.05;2.00;;;;;;;9.33;59.71;100631.47;4913243;29;20044;-66
2022/01/31 06:40:06;;;;;;;11.52;3.20;;;;;;;9.33;59.73;100641.31;4913110;29;20042;-66
2022/01/31 06:42:33;;;;;;;13.23;2.75;;;;;;;9.33;59.89;100619.88;4913311;29;20056;-65
2022/01/31 06:45:01;;;;;;;8.95;2.53;;;;;;;9.33;59.98;100620.75;4913351;29;20127;-66
2022/01/31 06:47:31;;;;;;;9.93;2.92;;;;;;;9.35;60.11;100631.34;4912677;29;20127;-66
2022/01/31 06:49:59;;;;;;;12.02;2.80;;;;;;;9.34;60.05;100633.19;4913357;29;20036;-66
2022/01/31 06:52:31;;;;;;;12.88;3.03;;;;;;;9.36;60.27;100625.03;4913153;29;20044;-67
2022/01/31 06:55:02;;;;;;;13.70;3.08;;;;;;;9.38;60.34;100631.16;4913217;29;20051;-67
2022/01/31 06:57:33;;;;;;;14.35;3.30;;;;;;;9.39;60.54;100627.50;4912781;29;20051;-66
2022/01/31 07:00:05;;;;;;;12.80;2.97;;;;;;;9.41;60.24;100645.19;4913356;29;20048;-66
2022/01/31 07:02:32;;;;;;;16.52;3.95;;;;;;;9.42;60.26;100648.72;4913057;29;20040;-66
2022/01/31 07:05:00;;;;;;;16.83;4.50;;;;;;;9.43;60.21;100655.81;4912705;29;20044;-66
2022/01/31 07:07:28;;;;;;;15.10;3.75;;;;;;;9.44;60.45;100655.69;4912887;29;20106;-66
2022/01/31 07:09:55;;;;;;;17.65;3.42;;;;;;;9.44;60.45;100663.75;4912013;28;20159;-66
2022/01/31 07:12:29;;;;;;;13.27;3.00;;;;;;;9.44;60.39;100660.19;4914605;28;20056;-66
2022/01/31 07:14:56;;;;;;;13.52;3.67;;;;;;;9.46;60.44;100663.63;4912730;29;20067;-66
2022/01/31 07:17:22;;;;;;;13.02;3.30;;;;;;;9.47;60.62;100670.72;4912883;29;20052;-66
2022/01/31 07:19:49;;;;;;;18.52;3.40;;;;;;;9.46;60.66;100659.13;4912656;29;20075;-66
2022/01/31 07:22:18;;;;;;;15.52;3.15;;;;;;;9.46;60.83;100655.59;4912711;29;20064;-66
2022/01/31 07:24:49;;;;;;;16.45;4.00;;;;;;;9.44;60.87;100661.06;4912710;29;20052;-66
2022/01/31 07:27:15;;;;;;;15.25;3.45;;;;;;;9.44;60.62;100658.38;4912692;29;20091;-66
2022/01/31 07:29:44;;;;;;;10.98;3.88;;;;;;;9.43;60.73;100678.09;4912549;29;20044;-66
2022/01/31 07:32:11;;;;;;;16.17;3.30;;;;;;;9.44;60.72;100677.13;4912415;29;20502;-66
2022/01/31 07:34:40;;;;;;;16.23;3.92;;;;;;;9.43;60.79;100669.22;4911198;29;20032;-66
2022/01/31 07:37:08;;;;;;;17.10;3.92;;;;;;;9.40;60.88;100650.66;4911639;28;20480;-66
2022/01/31 07:39:37;;;;;;;14.02;3.03;;;;;;;9.38;60.61;100660.63;4911628;29;20048;-66
2022/01/31 07:42:04;;;;;;;12.73;2.97;;;;;;;9.36;60.68;100654.50;4911866;29;20043;-67
2022/01/31 07:44:43;;;;;;;11.05;2.80;;;;;;;9.35;60.74;100648.28;4916487;28;20087;-66
2022/01/31 07:47:10;;;;;;;12.63;3.20;;;;;;;9.34;60.64;100645.72;4909248;29;20499;-66
2022/01/31 07:49:36;;;;;;;10.75;2.33;;;;;;;9.32;60.70;100648.50;4912572;28;20040;-65
2022/01/31 07:52:04;;;;;;;9.13;2.72;;;;;;;9.32;60.85;100648.50;4912415;29;20124;-66
2022/01/31 07:54:31;;;;;;;13.32;3.08;;;;;;;9.34;60.95;100645.72;4912454;29;20059;-66
2022/01/31 07:56:58;;;;;;;15.05;3.08;;;;;;;9.34;60.91;100645.72;4912455;29;20079;-66
2022/01/31 07:59:45;;;;;;;12.50;2.28;;;;;;;9.33;60.96;100641.31;4911550;29;20067;-67
2022/01/31 08:02:11;;;;;;;14.48;2.60;;;;;;;9.33;61.08;100644.88;4912076;29;20044;-66
2022/01/31 08:04:39;;;;;;;12.48;3.10;;;;;;;9.33;61.08;100652.03;4926707;28;20048;-66
2022/01/31 08:07:05;;;;;;;21.20;3.72;;;;;;;9.32;61.05;100653.88;4893562;29;20127;-66
2022/01/31 08:09:32;;;;;;;13.90;3.00;;;;;;;9.32;61.25;100658.38;4899484;29;20082;-66
2022/01/31 08:11:59;;;;;;;9.57;2.35;;;;;;;9.32;61.17;100655.69;4912135;29;20079;-66
2022/01/31 08:14:30;;;;;;;14.82;3.28;;;;;;;9.30;61.11;100653.13;4911490;29;20048;-66
2022/01/31 08:16:57;;;;;;;10.98;2.92;;;;;;;9.29;61.14;100656.75;4911348;28;20079;-66
2022/01/31 08:19:25;;;;;;;19.58;4.00;;;;;;;9.29;61.26;100646.03;4908560;29;20127;-66
2022/01/31 08:22:07;;;;;;;12.57;3.45;;;;;;;9.30;61.35;100660.28;4911353;29;20046;-65
2022/01/31 08:24:37;;;;;;;15.27;3.83;;;;;;;9.31;61.34;100649.47;4911420;29;20135;-66
2022/01/31 08:27:04;;;;;;;20.92;3.58;;;;;;;9.32;61.47;100664.59;4911552;28;20434;-66
2022/01/31 08:29:35;;;;;;;18.58;3.75;;;;;;;9.32;61.48;100659.22;4911738;29;20075;-66
2022/01/31 08:32:32;;;;;;;22.88;4.60;;;;;;;9.32;61.38;100661.03;4911838;29;20055;-65
2022/01/31 08:37:45;;;;;;;12.50;3.30;;;;;;;9.34;61.37;100657.28;4910587;29;20466;-65
2022/01/31 08:40:12;;;;;;;22.35;4.28;;;;;;;9.36;61.46;100644.66;4911985;29;20044;-66
2022/01/31 08:42:44;;;;;;;20.17;3.33;;;;;;;9.37;61.62;100646.38;4911773;29;20123;-66
2022/01/31 08:45:11;;;;;;;17.20;4.20;;;;;;;9.38;61.65;100645.41;4910925;29;20131;-66
2022/01/31 08:47:41;;;;;;;17.98;3.60;;;;;;;9.40;61.54;100640.78;4914876;29;20159;-66
2022/01/31 08:50:09;;;;;;;16.08;3.85;;;;;;;9.43;61.42;100653.97;4914086;28;20155;-66
2022/01/31 08:52:36;;;;;;;20.60;4.10;;;;;;;9.45;61.51;100657.41;4915058;29;20072;-65
2022/01/31 08:55:03;;;;;;;16.85;3.53;;;;;;;9.47;61.52;100646.59;4915377;28;20418;-66
2022/01/31 08:57:29;;;;;;;19.58;4.13;;;;;;;9.48;61.62;100653.66;4913224;29;20043;-66
2022/01/31 08:59:56;;;;;;;20.92;3.85;;;;;;;9.49;61.77;100636.63;4919481;28;20417;-67
2022/01/31 09:02:36;;;;;;;18.50;3.67;;;;;;;9.49;61.81;100658.91;4914194;29;20457;-67
2022/01/31 09:05:04;;;;;;;16.92;4.47;;;;;;;9.50;61.80;100657.94;4915349;29;20074;-66
2022/01/31 09:07:32;;;;;;;17.48;3.55;;;;;;;9.50;61.76;100660.63;4915467;29;20378;-67
2022/01/31 09:10:00;;;;;;;18.65;5.07;;;;;;;9.51;61.79;100640.03;4915077;29;20131;-66
2022/01/31 09:12:30;;;;;;;18.58;3.88;;;;;;;9.50;61.86;100641.88;4913752;29;20056;-66
2022/01/31 09:14:58;;;;;;;22.35;4.70;;;;;;;9.51;61.86;100643.59;4914811;29;20551;-67
2022/01/31 09:17:25;;;;;;;22.23;4.07;;;;;;;9.53;62.00;100640.78;4914635;29;20046;-66
2022/01/31 09:19:51;;;;;;;20.60;4.65;;;;;;;9.54;61.90;100655.91;4911785;29;20044;-66
2022/01/31 09:22:18;;;;;;;20.73;3.97;;;;;;;9.55;61.88;100653.13;4914195;29;20190;-66
2022/01/31 09:24:46;;;;;;;18.88;4.13;;;;;;;9.56;61.83;100648.63;4915222;28;20222;-68
2022/01/31 09:27:13;;;;;;;17.13;3.47;;;;;;;9.57;61.91;100656.56;4911973;28;20498;-65
2022/01/31 09:29:41;;;;;;;25.33;4.03;;;;;;;9.57;61.83;100656.56;4906257;29;20037;-67
2022/01/31 09:32:11;;;;;;;10.13;3.83;;;;;;;9.57;61.81;100666.44;4911267;29;20090;-68
2022/01/31 09:34:40;;;;;;;18.30;4.40;;;;;;;9.56;62.04;100657.53;4920603;28;20044;-66
2022/01/31 09:37:08;;;;;;;17.83;3.88;;;;;;;9.57;61.89;100663.75;4926125;28;20048;-66
2022/01/31 09:39:35;;;;;;;22.48;5.55;;;;;;;9.56;61.80;100676.28;4914269;29;20044;-67
2022/01/31 09:42:05;;;;;;;28.10;5.07;;;;;;;9.57;61.83;100677.16;4914671;29;20036;-67
2022/01/31 09:47:19;;;;;;;21.10;4.57;;;;;;;9.60;62.01;100681.44;4914453;29;20048;-66
2022/01/31 09:49:46;;;;;;;20.08;4.82;;;;;;;9.61;61.98;100675.97;4915435;29;20048;-66
2022/01/31 09:52:13;;;;;;;16.35;4.25;;;;;;;9.60;61.99;100686.81;4917048;29;20044;-65
2022/01/31 09:54:42;;;;;;;26.75;5.05;;;;;;;9.59;62.02;100696.66;4931490;29;20044;-67
2022/01/31 09:57:09;;;;;;;25.70;5.20;;;;;;;9.60;62.09;100698.38;4915995;29;20075;-65
2022/01/31 09:59:35;;;;;;;21.23;5.32;;;;;;;9.59;61.88;100703.84;4916488;29;20052;-66
2022/01/31 10:02:08;;;;;;;21.98;4.90;;;;;;;9.59;62.00;100706.53;4917163;29;20047;-65
2022/01/31 10:04:42;;;;;;;25.80;5.65;;;;;;;9.59;61.99;100709.22;4917936;29;20044;-66
2022/01/31 10:07:10;;;;;;;30.93;6.43;;;;;;;9.58;61.93;100700.31;4916567;29;20114;-65
2022/01/31 10:09:37;;;;;;;20.20;5.28;;;;;;;9.59;62.02;100717.25;4914412;29;20318;-66
2022/01/31 10:12:18;;;;;;;29.30;5.60;;;;;;;9.60;61.98;100727.03;4915048;29;20064;-65
2022/01/31 10:17:33;;;;;;;28.50;6.40;;;;;;;9.57;61.77;100734.31;4912243;29;20585;-66
2022/01/31 10:20:25;;;;;;;;;;;;;;;9.55;61.95;100760.38;4928711;29;20048;-65
2022/01/31 10:22:52;;;;;;;33.47;6.07;;;;;;;9.57;61.94;100755.75;4912598;29;19922;-66
2022/01/31 10:25:22;;;;;;;25.80;6.57;;;;;;;9.55;61.90;100771.09;4928187;29;20084;-67
2022/01/31 10:28:16;;;;;;;32.08;7.00;;;;;;;9.52;61.93;100765.94;4912193;28;20044;-67
2022/01/31 10:30:45;;;;;;;33.10;7.70;;;;;;;9.52;61.99;100765.06;4928144;29;20461;-65
2022/01/31 10:33:17;;;;;;;40.45;7.38;;;;;;;9.52;62.09;100768.63;4913658;29;20041;-64
2022/01/31 10:35:44;;;;;;;45.40;8.50;;;;;;;9.52;62.07;100787.38;4912404;29;20064;-66
2022/01/31 10:38:15;;;;;;;29.27;9.25;;;;;;;9.55;62.09;100795.22;4913358;29;20131;-66
2022/01/31 10:44:15;;;;;;;38.08;7.65;;;;;;;9.55;62.18;100787.19;4913561;29;20048;-65
2022/01/31 10:52:18;;;;;;;40.97;7.60;;;;;;;9.60;62.17;100783.31;4913592;29;20079;-64
2022/01/31 10:54:52;;;;;;;34.85;7.60;;;;;;;9.60;62.11;100791.38;4913331;29;20068;-66
2022/01/31 10:57:22;;;;;;;35.75;7.03;;;;;;;9.61;62.04;100801.97;4913576;29;20144;-67
2022/01/31 10:59:51;;;;;;;28.92;7.53;;;;;;;9.64;62.13;100790.19;4928196;29;20067;-66
2022/01/31 11:02:23;;;;;;;29.23;6.50;;;;;;;9.64;62.29;100795.56;4913442;29;20054;-65
2022/01/31 11:04:52;;;;;;;30.88;8.52;;;;;;;9.67;62.17;100803.44;4913437;29;20131;-66
2022/01/31 11:07:24;;;;;;;33.17;8.15;;;;;;;9.69;62.17;100809.53;4912368;29;20076;-71
2022/01/31 11:09:53;;;;;;;32.08;6.78;;;;;;;9.69;62.24;100805.03;4913661;29;20079;-70
2022/01/31 11:12:23;;;;;;;37.08;7.40;;;;;;;9.75;62.30;100812.66;4914305;29;20071;-69
2022/01/31 11:14:56;;;;;;;34.13;6.45;;;;;;;9.80;62.46;100839.16;4914204;29;20397;-70
2022/01/31 11:17:24;;;;;;;39.58;7.18;;;;;;;9.84;62.42;100813.84;4914540;29;20048;-70
2022/01/31 11:19:57;;;;;;;27.75;6.25;;;;;;;9.85;62.39;100831.66;4914304;29;20048;-70
2022/01/31 11:22:36;;;;;;;29.08;5.32;;;;;;;9.88;62.36;100839.50;4914501;29;20052;-69
2022/01/31 11:25:18;;;;;;;28.58;6.25;;;;;;;9.88;62.22;100848.41;4914089;29;20072;-69
2022/01/31 11:27:52;;;;;;;25.45;6.60;;;;;;;9.90;62.13;100834.03;4914367;29;20433;-69
2022/01/31 11:30:20;;;;;;;30.55;6.03;;;;;;;9.88;62.13;100858.28;4913882;29;20092;-70
2022/01/31 11:32:48;;;;;;;23.92;6.07;;;;;;;9.89;62.18;100851.97;4928712;29;20461;-69
2022/01/31 11:35:15;;;;;;;21.48;5.13;;;;;;;9.88;62.25;100859.16;4913825;29;20068;-70
2022/01/31 11:37:42;;;;;;;26.17;6.15;;;;;;;9.88;62.15;100860.97;4913926;29;20090;-69
2022/01/31 11:40:10;;;;;;;30.23;5.97;;;;;;;9.87;62.19;100868.16;4913947;29;20074;-69
2022/01/31 11:42:41;;;;;;;24.02;5.38;;;;;;;9.87;62.02;100852.06;4913972;29;20506;-70
2022/01/31 11:45:30;;;;;;;20.85;4.45;;;;;;;9.87;62.18;100848.53;4913435;29;20537;-69
2022/01/31 11:48:03;;;;;;;22.45;6.20;;;;;;;9.87;62.09;100867.28;4913710;29;20067;-70
2022/01/31 11:50:30;;;;;;;18.60;5.10;;;;;;;9.86;62.04;100876.31;4913723;29;20052;-69
2022/01/31 11:53:18;;;;;;;23.23;6.53;;;;;;;9.86;61.99;100884.34;4913612;29;20046;-69
2022/01/31 11:55:48;;;;;;;35.15;5.53;;;;;;;9.86;62.04;100879.84;4912366;29;20063;-69
2022/01/31 11:58:15;;;;;;;27.20;5.47;;;;;;;9.86;62.30;100870.94;4913115;29;20094;-70
2022/01/31 12:00:42;;;;;;;26.77;7.47;;;;;;;9.84;62.17;100872.88;4913318;29;20442;-70